Time;durP1;ratioP1;P1;durP2;ratioP2;P2;SDS_P1;SDS_P2;PMS_P1;PMS_P2;Temp;Humidity;BMP_temperature;BMP_pressure;BME280_temperature;BME280_humidity;BME280_pressure;Samples;Min_cycle;Max_cycle;Signal;HPM_P1;HPM_P2
2023/02/28 00:00:47;;;;;;;;;;;;;;;;;;5047303;28;19921;-82
2023/02/28 00:03:12;;;;;;;;;;;;;;;;;;5046266;28;20622;-79
2023/02/28 00:05:37;;;;;;;;;;;;;;;;;;5046664;28;19913;-81
2023/02/28 00:08:02;;;;;;;;;;;;;;;;;;5043786;28;19913;-81
2023/02/28 00:10:28;;;;;;;;;;;;;;;;;;5046379;28;19912;-80
2023/02/28 00:12:53;;;;;;;;;;;;;;;;;;5043874;28;19927;-81
2023/02/28 00:15:18;;;;;;;;;;;;;;;;;;5048643;28;19913;-81
2023/02/28 00:17:44;;;;;;;;;;;;;;;;;;5042522;28;19991;-81
2023/02/28 00:20:09;;;;;;;;;;;;;;;;;;5030877;28;19919;-79
2023/02/28 00:22:35;;;;;;;;;;;;;;;;;;5048369;28;19928;-79
2023/02/28 00:25:00;;;;;;;;;;;;;;;;;;5045815;28;20312;-80
2023/02/28 00:27:25;;;;;;;;;;;;;;;;;;5044504;28;19935;-79
2023/02/28 00:29:50;;;;;;;;;;;;;;;;;;5044735;28;20136;-81
2023/02/28 00:32:15;;;;;;;;;;;;;;;;;;5048398;28;20361;-81
2023/02/28 00:34:40;;;;;;;;;;;;;;;;;;5044955;28;20712;-80
2023/02/28 00:37:06;;;;;;;;;;;;;;;;;;5046839;28;19925;-81
2023/02/28 00:39:31;;;;;;;;;;;;;;;;;;5050365;28;19917;-80
2023/02/28 00:41:56;;;;;;;;;;;;;;;;;;5046656;28;19920;-81
2023/02/28 00:44:21;;;;;;;;;;;;;;;;;;5049944;28;19917;-81
2023/02/28 00:46:46;;;;;;;;;;;;;;;;;;5048589;28;19916;-80
2023/02/28 00:49:12;;;;;;;;;;;;;;;;;;5049059;28;20164;-80
2023/02/28 00:51:37;;;;;;;;;;;;;;;;;;5046724;28;19919;-79
2023/02/28 00:54:02;;;;;;;;;;;;;;;;;;5047096;28;20369;-81
2023/02/28 00:56:27;;;;;;;;;;;;;;;;;;5049907;28;19916;-79
2023/02/28 00:58:52;;;;;;;;;;;;;;;;;;5042090;28;20004;-80
2023/02/28 01:01:18;;;;;;;;;;;;;;;;;;5047540;28;19921;-81
2023/02/28 01:03:43;;;;;;;;;;;;;;;;;;5046049;28;19953;-80
2023/02/28 01:06:08;;;;;;;;;;;;;;;;;;5049036;28;19913;-80
2023/02/28 01:08:33;;;;;;;;;;;;;;;;;;5039893;28;19955;-80
2023/02/28 01:10:58;;;;;;;;;;;;;;;;;;5042364;28;19917;-81
2023/02/28 01:13:25;;;;;;;;;;;;;;;;;;5045738;28;19913;-81
2023/02/28 01:15:50;;;;;;;;;;;;;;;;;;5041564;28;19919;-79
2023/02/28 01:18:16;;;;;;;;;;;;;;;;;;5046542;28;19916;-80
2023/02/28 01:20:41;;;;;;;;;;;;;;;;;;5044429;28;19919;-80
2023/02/28 01:23:06;;;;;;;;;;;;;;;;;;5043471;28;20375;-80
2023/02/28 01:25:31;;;;;;;;;;;;;;;;;;5043715;28;19913;-81
2023/02/28 01:27:56;;;;;;;;;;;;;;;;;;5044325;28;19921;-80
2023/02/28 01:30:21;;;;;;;;;;;;;;;;;;5049188;28;20401;-80
2023/02/28 01:32:46;;;;;;;;;;;;;;;;;;5043086;28;20459;-80
2023/02/28 01:35:12;;;;;;;;;;;;;;;;;;5051749;28;19939;-80
2023/02/28 01:37:37;;;;;;;;;;;;;;;;;;5050366;28;19956;-80
2023/02/28 01:40:02;;;;;;;;;;;;;;;;;;5047902;28;19924;-80
2023/02/28 01:42:28;;;;;;;;;;;;;;;;;;5044066;28;19971;-79
2023/02/28 01:44:53;;;;;;;;;;;;;;;;;;5042266;28;19913;-80
2023/02/28 01:47:18;;;;;;;;;;;;;;;;;;5046376;28;19943;-80
2023/02/28 01:49:43;;;;;;;;;;;;;;;;;;5047409;28;20011;-79
2023/02/28 01:52:09;;;;;;;;;;;;;;;;;;5048845;28;19912;-80
2023/02/28 01:54:34;;;;;;;;;;;;;;;;;;5044767;28;19987;-80
2023/02/28 01:56:59;;;;;;;;;;;;;;;;;;5039458;28;19917;-80
2023/02/28 01:59:24;;;;;;;;;;;;;;;;;;5044036;28;20418;-80
2023/02/28 02:01:49;;;;;;;;;;;;;;;;;;5047849;28;19974;-80
2023/02/28 02:04:15;;;;;;;;;;;;;;;;;;5046931;28;19916;-79
2023/02/28 02:06:40;;;;;;;;;;;;;;;;;;5040652;28;19921;-81
2023/02/28 02:09:06;;;;;;;;;;;;;;;;;;5052694;28;20359;-80
2023/02/28 02:11:31;;;;;;;;;;;;;;;;;;5047903;28;19913;-81
2023/02/28 02:13:56;;;;;;;;;;;;;;;;;;5045563;28;19921;-80
2023/02/28 02:16:21;;;;;;;;;;;;;;;;;;5040380;28;19925;-80
2023/02/28 02:18:46;;;;;;;;;;;;;;;;;;5043236;28;19920;-80
2023/02/28 02:21:11;;;;;;;;;;;;;;;;;;5044817;28;19917;-79
2023/02/28 02:23:37;;;;;;;;;;;;;;;;;;5042529;28;20420;-80
2023/02/28 02:26:02;;;;;;;;;;;;;;;;;;5039047;28;19921;-80
2023/02/28 02:28:27;;;;;;;;;;;;;;;;;;5042759;28;20370;-80
2023/02/28 02:30:52;;;;;;;;;;;;;;;;;;5046208;28;19921;-80
2023/02/28 02:33:17;;;;;;;;;;;;;;;;;;5050063;28;20312;-80
2023/02/28 02:35:43;;;;;;;;;;;;;;;;;;5045636;28;19919;-80
2023/02/28 02:38:08;;;;;;;;;;;;;;;;;;5044454;28;20488;-80
2023/02/28 02:40:33;;;;;;;;;;;;;;;;;;5043781;28;19952;-80
2023/02/28 02:42:58;;;;;;;;;;;;;;;;;;5047617;28;20454;-80
2023/02/28 02:45:23;;;;;;;;;;;;;;;;;;5044011;28;19913;-80
2023/02/28 02:47:49;;;;;;;;;;;;;;;;;;5044357;28;19939;-80
2023/02/28 02:50:14;;;;;;;;;;;;;;;;;;5043092;28;19960;-80
2023/02/28 02:52:39;;;;;;;;;;;;;;;;;;5042981;28;20046;-79
2023/02/28 02:55:04;;;;;;;;;;;;;;;;;;5029809;28;19912;-80
2023/02/28 02:57:30;;;;;;;;;;;;;;;;;;5045259;28;19939;-80
2023/02/28 02:59:55;;;;;;;;;;;;;;;;;;5043856;28;19959;-79
2023/02/28 03:02:20;;;;;;;;;;;;;;;;;;5035007;28;19947;-80
2023/02/28 03:04:45;;;;;;;;;;;;;;;;;;5055923;28;20441;-80
2023/02/28 03:07:10;;;;;;;;;;;;;;;;;;5046113;28;19927;-80
2023/02/28 03:09:35;;;;;;;;;;;;;;;;;;5045738;28;20367;-80
2023/02/28 03:12:01;;;;;;;;;;;;;;;;;;5047998;28;19928;-79
2023/02/28 03:14:26;;;;;;;;;;;;;;;;;;5032588;28;19996;-79
2023/02/28 03:16:52;;;;;;;;;;;;;;;;;;5051623;28;20206;-80
2023/02/28 03:19:17;;;;;;;;;;;;;;;;;;5050054;28;20386;-80
2023/02/28 03:21:42;;;;;;;;;;;;;;;;;;5048528;28;19909;-80
2023/02/28 03:24:08;;;;;;;;;;;;;;;;;;5046127;28;20286;-80
2023/02/28 03:26:33;;;;;;;;;;;;;;;;;;5049517;28;20044;-79
2023/02/28 03:28:58;;;;;;;;;;;;;;;;;;5050060;28;20298;-80
2023/02/28 03:31:23;;;;;;;;;;;;;;;;;;5047227;28;19996;-79
2023/02/28 03:33:54;;;;;;;;;;;;;;;;;;5050405;28;19923;-80
2023/02/28 03:36:19;;;;;;;;;;;;;;;;;;5049578;28;19922;-80
2023/02/28 03:38:44;;;;;;;;;;;;;;;;;;5047765;28;20457;-80
2023/02/28 03:41:10;;;;;;;;;;;;;;;;;;5047646;28;20392;-80
2023/02/28 03:43:35;;;;;;;;;;;;;;;;;;5049038;28;19913;-79
2023/02/28 03:46:00;;;;;;;;;;;;;;;;;;5047501;28;19921;-79
2023/02/28 03:48:25;;;;;;;;;;;;;;;;;;5053189;28;19959;-80
2023/02/28 03:50:50;;;;;;;;;;;;;;;;;;5053091;28;19908;-80
2023/02/28 03:53:16;;;;;;;;;;;;;;;;;;5050508;28;20427;-80
2023/02/28 03:55:41;;;;;;;;;;;;;;;;;;5045694;28;19944;-80
2023/02/28 03:58:06;;;;;;;;;;;;;;;;;;5049286;28;19978;-80
2023/02/28 04:00:32;;;;;;;;;;;;;;;;;;5046164;28;19913;-80
2023/02/28 04:02:57;;;;;;;;;;;;;;;;;;5035011;28;20406;-80
2023/02/28 04:05:23;;;;;;;;;;;;;;;;;;5051099;28;19924;-80
2023/02/28 04:07:48;;;;;;;;;;;;;;;;;;5048429;28;19916;-80
2023/02/28 04:10:13;;;;;;;;;;;;;;;;;;5050537;28;19924;-80
2023/02/28 04:12:39;;;;;;;;;;;;;;;;;;5028253;28;19917;-79
2023/02/28 04:15:04;;;;;;;;;;;;;;;;;;5044965;28;19912;-80
2023/02/28 04:17:29;;;;;;;;;;;;;;;;;;5049595;28;19917;-80
2023/02/28 04:19:56;;;;;;;;;;;;;;;;;;5051704;28;20565;-80
2023/02/28 04:22:21;;;;;;;;;;;;;;;;;;5047859;28;19956;-80
2023/02/28 04:24:46;;;;;;;;;;;;;;;;;;5043044;28;20527;-80
2023/02/28 04:27:11;;;;;;;;;;;;;;;;;;5044046;28;19917;-79
2023/02/28 04:29:37;;;;;;;;;;;;;;;;;;5046271;28;19913;-79
2023/02/28 04:32:02;;;;;;;;;;;;;;;;;;5045307;28;19927;-80
2023/02/28 04:34:27;;;;;;;;;;;;;;;;;;5042740;28;19913;-79
2023/02/28 04:36:54;;;;;;;;;;;;;;;;;;5041974;28;19932;-80
2023/02/28 04:39:19;;;;;;;;;;;;;;;;;;5043887;28;19919;-79
2023/02/28 04:41:44;;;;;;;;;;;;;;;;;;5046008;28;20224;-79
2023/02/28 04:44:09;;;;;;;;;;;;;;;;;;5043036;28;20412;-80
2023/02/28 04:46:35;;;;;;;;;;;;;;;;;;5045221;28;19913;-78
2023/02/28 04:49:00;;;;;;;;;;;;;;;;;;5048100;28;19917;-79
2023/02/28 04:51:25;;;;;;;;;;;;;;;;;;5043262;28;19913;-79
2023/02/28 04:53:50;;;;;;;;;;;;;;;;;;5043503;28;20015;-79
2023/02/28 04:56:15;;;;;;;;;;;;;;;;;;5046005;28;19927;-79
2023/02/28 04:58:40;;;;;;;;;;;;;;;;;;5049557;28;20271;-79
2023/02/28 05:01:12;;;;;;;;;;;;;;;;;;5045784;28;20011;-79
2023/02/28 05:03:37;;;;;;;;;;;;;;;;;;5038662;28;19928;-79
2023/02/28 05:06:02;;;;;;;;;;;;;;;;;;5046971;28;19923;-80
2023/02/28 05:08:30;;;;;;;;;;;;;;;;;;5030001;28;20072;-79
2023/02/28 05:10:55;;;;;;;;;;;;;;;;;;5047401;28;19920;-79
2023/02/28 05:13:20;;;;;;;;;;;;;;;;;;5044527;28;19939;-80
2023/02/28 05:15:45;;;;;;;;;;;;;;;;;;5051493;28;19928;-79
2023/02/28 05:18:10;;;;;;;;;;;;;;;;;;5049680;28;20007;-80
2023/02/28 05:20:35;;;;;;;;;;;;;;;;;;5048031;28;19913;-79
2023/02/28 05:23:01;;;;;;;;;;;;;;;;;;5048409;28;19916;-79
2023/02/28 05:25:26;;;;;;;;;;;;;;;;;;5044573;28;20104;-79
2023/02/28 05:27:51;;;;;;;;;;;;;;;;;;5043365;28;19999;-80
2023/02/28 05:30:16;;;;;;;;;;;;;;;;;;5048746;28;19913;-79
2023/02/28 05:32:44;;;;;;;;;;;;;;;;;;5048089;28;19920;-80
2023/02/28 05:35:09;;;;;;;;;;;;;;;;;;5046253;28;19913;-79
2023/02/28 05:37:34;;;;;;;;;;;;;;;;;;5049027;28;19939;-80
2023/02/28 05:40:00;;;;;;;;;;;;;;;;;;5047410;28;20381;-80
2023/02/28 05:42:25;;;;;;;;;;;;;;;;;;5044090;28;19913;-80
2023/02/28 05:44:51;;;;;;;;;;;;;;;;;;5046600;28;19974;-78
2023/02/28 05:47:16;;;;;;;;;;;;;;;;;;5045183;28;20124;-79
2023/02/28 05:49:42;;;;;;;;;;;;;;;;;;5031300;28;20358;-79
2023/02/28 05:52:07;;;;;;;;;;;;;;;;;;5043492;28;19913;-80
2023/02/28 05:54:32;;;;;;;;;;;;;;;;;;5044665;28;19917;-79
2023/02/28 05:56:57;;;;;;;;;;;;;;;;;;5046035;28;19924;-79
2023/02/28 05:59:22;;;;;;;;;;;;;;;;;;5023254;28;20337;-80
2023/02/28 06:01:47;;;;;;;;;;;;;;;;;;5044835;28;19927;-79
2023/02/28 06:04:14;;;;;;;;;;;;;;;;;;5046795;28;20289;-79
2023/02/28 06:06:39;;;;;;;;;;;;;;;;;;5045690;28;20505;-79
2023/02/28 06:09:05;;;;;;;;;;;;;;;;;;5043492;28;19920;-80
2023/02/28 06:11:30;;;;;;;;;;;;;;;;;;5040649;28;19913;-79
2023/02/28 06:13:56;;;;;;;;;;;;;;;;;;5048661;28;20003;-79
2023/02/28 06:16:21;;;;;;;;;;;;;;;;;;5046906;28;19952;-80
2023/02/28 06:18:46;;;;;;;;;;;;;;;;;;5049944;28;19920;-79
2023/02/28 06:21:11;;;;;;;;;;;;;;;;;;5057696;28;19934;-79
2023/02/28 06:23:37;;;;;;;;;;;;;;;;;;5038323;28;19913;-79
2023/02/28 06:26:02;;;;;;;;;;;;;;;;;;5044089;28;19924;-79
2023/02/28 06:28:27;;;;;;;;;;;;;;;;;;5039729;28;19921;-80
2023/02/28 06:30:52;;;;;;;;;;;;;;;;;;5043221;28;20172;-79
2023/02/28 06:33:17;;;;;;;;;;;;;;;;;;5052798;28;19914;-80
2023/02/28 06:35:43;;;;;;;;;;;;;;;;;;5040996;28;19959;-79
2023/02/28 06:38:08;;;;;;;;;;;;;;;;;;5039753;28;19917;-80
2023/02/28 06:40:35;;;;;;;;;;;;;;;;;;5050403;28;20386;-80
2023/02/28 06:43:01;;;;;;;;;;;;;;;;;;5040667;28;20200;-80
2023/02/28 06:45:26;;;;;;;;;;;;;;;;;;5039300;28;20375;-80
2023/02/28 06:47:52;;;;;;;;;;;;;;;;;;5035048;28;20095;-80
2023/02/28 06:50:20;;;;;;;;;;;;;;;;;;5034686;28;19914;-80
2023/02/28 06:52:45;;;;;;;;;;;;;;;;;;5038706;28;19913;-80
2023/02/28 06:55:11;;;;;;;;;;;;;;;;;;5039139;28;19915;-80
2023/02/28 06:57:36;;;;;;;;;;;;;;;;;;5042562;28;19940;-80
2023/02/28 07:00:02;;;;;;;;;;;;;;;;;;5045457;28;19920;-81
2023/02/28 07:02:27;;;;;;;;;;;;;;;;;;5042433;28;19917;-80
2023/02/28 07:04:52;;;;;;;;;;;;;;;;;;5041171;28;20258;-81
2023/02/28 07:07:17;;;;;;;;;;;;;;;;;;5040057;28;20271;-81
2023/02/28 07:09:42;;;;;;;;;;;;;;;;;;5047884;28;20010;-80
2023/02/28 07:12:08;;;;;;;;;;;;;;;;;;5038512;28;20267;-81
2023/02/28 07:14:33;;;;;;;;;;;;;;;;;;5045519;28;19923;-81
2023/02/28 07:16:58;;;;;;;;;;;;;;;;;;5048695;28;20366;-81
2023/02/28 07:19:23;;;;;;;;;;;;;;;;;;5043621;28;19913;-81
2023/02/28 07:21:48;;;;;;;;;;;;;;;;;;5039886;28;20029;-81
2023/02/28 07:24:15;;;;;;;;;;;;;;;;;;5044907;28;19913;-81
2023/02/28 07:26:41;;;;;;;;;;;;;;;;;;5042064;28;19913;-82
2023/02/28 07:29:06;;;;;;;;;;;;;;;;;;5038325;28;20374;-81
2023/02/28 07:31:31;;;;;;;;;;;;;;;;;;5027506;28;19924;-82
2023/02/28 07:33:56;;;;;;;;;;;;;;;;;;5042588;28;20359;-82
2023/02/28 07:36:21;;;;;;;;;;;;;;;;;;5048654;28;19917;-82
2023/02/28 07:38:49;;;;;;;;;;;;;;;;;;5048160;28;20381;-82
2023/02/28 07:41:15;;;;;;;;;;;;;;;;;;5041071;28;20334;-82
2023/02/28 07:43:40;;;;;;;;;;;;;;;;;;5045638;28;19960;-82
2023/02/28 07:46:05;;;;;;;;;;;;;;;;;;5041200;28;19913;-82
2023/02/28 07:48:30;;;;;;;;;;;;;;;;;;5046895;28;19912;-82
2023/02/28 07:50:56;;;;;;;;;;;;;;;;;;5050366;28;19917;-82
2023/02/28 07:53:21;;;;;;;;;;;;;;;;;;5054860;28;20003;-83
2023/02/28 07:55:46;;;;;;;;;;;;;;;;;;5049957;28;20292;-83
2023/02/28 07:58:11;;;;;;;;;;;;;;;;;;5050354;28;19920;-83
2023/02/28 08:00:36;;;;;;;;;;;;;;;;;;5047051;28;20305;-82
2023/02/28 08:03:01;;;;;;;;;;;;;;;;;;5050303;28;20022;-83
2023/02/28 08:05:27;;;;;;;;;;;;;;;;;;5029743;28;20295;-83
2023/02/28 08:07:53;;;;;;;;;;;;;;;;;;5051102;28;19924;-83
2023/02/28 08:10:18;;;;;;;;;;;;;;;;;;5042811;28;19917;-83
2023/02/28 08:12:43;;;;;;;;;;;;;;;;;;5040606;28;19913;-83
2023/02/28 08:15:08;;;;;;;;;;;;;;;;;;5046742;28;20035;-84
2023/02/28 08:17:33;;;;;;;;;;;;;;;;;;5045495;28;19921;-83
2023/02/28 08:19:59;;;;;;;;;;;;;;;;;;5041963;28;19916;-83
2023/02/28 08:22:24;;;;;;;;;;;;;;;;;;5050478;28;19913;-84
2023/02/28 08:24:49;;;;;;;;;;;;;;;;;;5037154;28;20247;-84
2023/02/28 08:27:14;;;;;;;;;;;;;;;;;;5043664;28;19975;-84
2023/02/28 08:29:39;;;;;;;;;;;;;;;;;;5046468;28;19925;-83
2023/02/28 08:32:05;;;;;;;;;;;;;;;;;;5037997;28;20480;-84
2023/02/28 08:34:30;;;;;;;;;;;;;;;;;;5045054;28;20188;-84
2023/02/28 08:36:55;;;;;;;;;;;;;;;;;;5046599;28;20024;-84
2023/02/28 08:39:20;;;;;;;;;;;;;;;;;;5044482;28;19912;-84
2023/02/28 08:41:46;;;;;;;;;;;;;;;;;;5049684;28;19921;-84
2023/02/28 08:44:11;;;;;;;;;;;;;;;;;;5040958;28;20004;-84
2023/02/28 08:46:36;;;;;;;;;;;;;;;;;;5043338;28;20012;-84
2023/02/28 08:49:01;;;;;;;;;;;;;;;;;;5050656;28;19974;-84
2023/02/28 08:51:27;;;;;;;;;;;;;;;;;;5041772;28;19917;-83
2023/02/28 08:53:52;;;;;;;;;;;;;;;;;;5046411;28;19917;-85
2023/02/28 08:56:17;;;;;;;;;;;;;;;;;;5038656;28;19966;-85
2023/02/28 08:58:42;;;;;;;;;;;;;;;;;;5044193;28;19964;-85
2023/02/28 09:01:07;;;;;;;;;;;;;;;;;;5038033;28;20450;-84
2023/02/28 09:03:33;;;;;;;;;;;;;;;;;;5036883;28;19913;-85
2023/02/28 09:05:58;;;;;;;;;;;;;;;;;;5043076;28;20424;-84
2023/02/28 09:08:23;;;;;;;;;;;;;;;;;;5037132;28;19917;-85
2023/02/28 09:10:48;;;;;;;;;;;;;;;;;;5045552;28;19974;-85
2023/02/28 09:13:13;;;;;;;;;;;;;;;;;;5036404;28;20373;-85
2023/02/28 09:15:39;;;;;;;;;;;;;;;;;;5047034;28;19979;-85
2023/02/28 09:18:04;;;;;;;;;;;;;;;;;;5037381;28;19917;-85
2023/02/28 09:20:29;;;;;;;;;;;;;;;;;;5042221;28;19913;-86
2023/02/28 09:22:54;;;;;;;;;;;;;;;;;;5041679;28;19927;-84
2023/02/28 09:25:19;;;;;;;;;;;;;;;;;;5043513;28;19923;-86
2023/02/28 09:27:45;;;;;;;;;;;;;;;;;;5040697;28;19956;-84
2023/02/28 09:30:10;;;;;;;;;;;;;;;;;;5036233;28;19913;-85
2023/02/28 09:32:35;;;;;;;;;;;;;;;;;;5042792;28;19995;-85
2023/02/28 09:35:01;;;;;;;;;;;;;;;;;;5039137;28;19928;-86
2023/02/28 09:37:29;;;;;;;;;;;;;;;;;;5048836;28;19924;-85
2023/02/28 09:39:54;;;;;;;;;;;;;;;;;;5048924;28;19917;-86
2023/02/28 09:42:19;;;;;;;;;;;;;;;;;;5042479;28;20448;-85
2023/02/28 09:44:44;;;;;;;;;;;;;;;;;;5046216;28;19912;-85
2023/02/28 09:47:09;;;;;;;;;;;;;;;;;;5047650;28;19967;-84
2023/02/28 09:49:35;;;;;;;;;;;;;;;;;;5050851;28;19912;-84
2023/02/28 09:52:00;;;;;;;;;;;;;;;;;;5050670;28;19912;-85
2023/02/28 09:54:26;;;;;;;;;;;;;;;;;;5039646;28;19913;-85
2023/02/28 09:56:54;;;;;;;;;;;;;;;;;;5040074;28;19940;-86
2023/02/28 09:59:19;;;;;;;;;;;;;;;;;;5032303;28;19913;-86
2023/02/28 10:01:44;;;;;;;;;;;;;;;;;;5036741;28;19944;-85
2023/02/28 10:04:09;;;;;;;;;;;;;;;;;;5041177;28;19914;-86
2023/02/28 10:06:34;;;;;;;;;;;;;;;;;;5041380;28;19912;-86
2023/02/28 10:09:01;;;;;;;;;;;;;;;;;;5049008;28;19917;-86
2023/02/28 10:11:26;;;;;;;;;;;;;;;;;;5036362;28;20338;-86
2023/02/28 10:13:52;;;;;;;;;;;;;;;;;;5043331;28;19912;-86
2023/02/28 10:16:17;;;;;;;;;;;;;;;;;;5045748;28;19935;-86
2023/02/28 10:18:42;;;;;;;;;;;;;;;;;;5042542;28;19924;-86
2023/02/28 10:21:07;;;;;;;;;;;;;;;;;;5043591;28;20052;-86
2023/02/28 10:23:33;;;;;;;;;;;;;;;;;;5037544;28;20016;-85
2023/02/28 10:25:58;;;;;;;;;;;;;;;;;;5049010;28;20509;-86
2023/02/28 10:28:23;;;;;;;;;;;;;;;;;;5042700;28;20383;-86
2023/02/28 10:30:48;;;;;;;;;;;;;;;;;;5036051;28;19970;-86
2023/02/28 10:33:14;;;;;;;;;;;;;;;;;;5040099;28;20448;-87
2023/02/28 10:35:39;;;;;;;;;;;;;;;;;;5034311;28;19913;-85
2023/02/28 10:38:04;;;;;;;;;;;;;;;;;;5040011;28;19924;-85
2023/02/28 10:40:29;;;;;;;;;;;;;;;;;;5040881;28;19936;-84
2023/02/28 10:42:54;;;;;;;;;;;;;;;;;;5042339;28;20494;-86
2023/02/28 10:45:19;;;;;;;;;;;;;;;;;;5046338;28;20467;-85
2023/02/28 10:47:45;;;;;;;;;;;;;;;;;;5042248;28;19924;-85
2023/02/28 10:50:10;;;;;;;;;;;;;;;;;;5049562;28;19955;-86
2023/02/28 10:52:35;;;;;;;;;;;;;;;;;;5035261;28;19917;-86
2023/02/28 10:55:00;;;;;;;;;;;;;;;;;;5041183;28;19927;-86
2023/02/28 10:57:25;;;;;;;;;;;;;;;;;;5043324;28;19932;-85
2023/02/28 10:59:51;;;;;;;;;;;;;;;;;;5048434;28;19939;-86
2023/02/28 11:02:16;;;;;;;;;;;;;;;;;;5045104;28;19987;-86
2023/02/28 11:04:41;;;;;;;;;;;;;;;;;;5041867;28;20341;-86
2023/02/28 11:07:06;;;;;;;;;;;;;;;;;;5037964;28;20003;-87
2023/02/28 11:09:31;;;;;;;;;;;;;;;;;;5041836;28;20346;-85
2023/02/28 11:11:57;;;;;;;;;;;;;;;;;;5035832;28;20792;-86
2023/02/28 11:14:22;;;;;;;;;;;;;;;;;;5042908;28;19960;-86
2023/02/28 11:16:47;;;;;;;;;;;;;;;;;;5045328;28;20390;-86
2023/02/28 11:19:12;;;;;;;;;;;;;;;;;;5044884;28;20306;-86
2023/02/28 11:21:40;;;;;;;;;;;;;;;;;;5050485;28;19912;-85
2023/02/28 11:24:20;;;;;;;;;;;;;;;;;;5052138;28;19917;-86
2023/02/28 11:26:45;;;;;;;;;;;;;;;;;;5039638;28;19917;-86
2023/02/28 11:29:10;;;;;;;;;;;;;;;;;;5037200;28;19920;-87
2023/02/28 11:31:36;;;;;;;;;;;;;;;;;;5052150;28;19964;-86
2023/02/28 11:34:01;;;;;;;;;;;;;;;;;;5031195;28;20386;-86
2023/02/28 11:36:26;;;;;;;;;;;;;;;;;;5037563;28;19917;-87
2023/02/28 11:38:51;;;;;;;;;;;;;;;;;;5046569;28;19912;-86
2023/02/28 11:41:16;;;;;;;;;;;;;;;;;;5048450;28;20000;-86
2023/02/28 11:43:42;;;;;;;;;;;;;;;;;;5050857;28;19913;-86
2023/02/28 11:46:07;;;;;;;;;;;;;;;;;;5041957;28;20393;-87
2023/02/28 11:48:32;;;;;;;;;;;;;;;;;;5047019;28;19932;-86
2023/02/28 11:50:57;;;;;;;;;;;;;;;;;;5047269;28;19920;-85
2023/02/28 11:53:23;;;;;;;;;;;;;;;;;;5046071;28;19921;-86
2023/02/28 11:55:48;;;;;;;;;;;;;;;;;;5037995;28;20324;-85
2023/02/28 11:58:14;;;;;;;;;;;;;;;;;;5039683;28;19991;-87
2023/02/28 12:00:39;;;;;;;;;;;;;;;;;;5057854;22;19925;-82
2023/02/28 12:03:04;;;;;;;;;;;;;;;;;;5034384;28;19940;-82
2023/02/28 12:05:29;;;;;;;;;;;;;;;;;;5046377;28;19909;-82
2023/02/28 12:07:55;;;;;;;;;;;;;;;;;;5050730;28;19917;-82
2023/02/28 12:10:20;;;;;;;;;;;;;;;;;;5045038;28;20413;-83
2023/02/28 12:12:45;;;;;;;;;;;;;;;;;;5043281;28;19913;-82
2023/02/28 12:15:10;;;;;;;;;;;;;;;;;;5044021;28;19916;-82
2023/02/28 12:17:35;;;;;;;;;;;;;;;;;;5036220;28;20335;-82
2023/02/28 12:20:00;;;;;;;;;;;;;;;;;;5045657;28;19920;-83
2023/02/28 12:22:26;;;;;;;;;;;;;;;;;;5049757;28;19909;-83
2023/02/28 12:24:51;;;;;;;;;;;;;;;;;;5034282;28;19924;-82
2023/02/28 12:27:16;;;;;;;;;;;;;;;;;;5040236;28;20409;-82
2023/02/28 12:29:42;;;;;;;;;;;;;;;;;;5035545;28;19913;-83
2023/02/28 12:32:07;;;;;;;;;;;;;;;;;;5042648;28;20007;-82
2023/02/28 12:34:32;;;;;;;;;;;;;;;;;;5036529;28;19920;-83
2023/02/28 12:36:57;;;;;;;;;;;;;;;;;;5040946;28;19990;-82
2023/02/28 12:39:23;;;;;;;;;;;;;;;;;;5048509;28;20373;-82
2023/02/28 12:41:48;;;;;;;;;;;;;;;;;;5040828;28;19958;-82
2023/02/28 12:44:13;;;;;;;;;;;;;;;;;;5040302;28;20301;-82
2023/02/28 12:46:38;;;;;;;;;;;;;;;;;;5040953;28;19959;-83
2023/02/28 12:49:04;;;;;;;;;;;;;;;;;;5040371;28;19917;-83
2023/02/28 12:51:29;;;;;;;;;;;;;;;;;;5042849;28;20182;-83
2023/02/28 12:53:55;;;;;;;;;;;;;;;;;;5028675;28;19925;-83
2023/02/28 12:56:20;;;;;;;;;;;;;;;;;;5044367;28;19916;-83
2023/02/28 12:58:45;;;;;;;;;;;;;;;;;;5037778;28;20423;-83
2023/02/28 13:01:10;;;;;;;;;;;;;;;;;;5042271;28;19921;-83
2023/02/28 13:03:35;;;;;;;;;;;;;;;;;;5035856;28;19913;-83
2023/02/28 13:06:01;;;;;;;;;;;;;;;;;;5039030;28;20350;-83
2023/02/28 13:08:27;;;;;;;;;;;;;;;;;;5027679;28;19913;-83
2023/02/28 13:10:55;;;;;;;;;;;;;;;;;;5039970;28;19917;-83
2023/02/28 13:13:20;;;;;;;;;;;;;;;;;;5043393;28;19924;-83
2023/02/28 13:15:46;;;;;;;;;;;;;;;;;;5036277;28;19917;-83
2023/02/28 13:18:11;;;;;;;;;;;;;;;;;;5043788;28;19970;-83
2023/02/28 13:20:37;;;;;;;;;;;;;;;;;;5042322;28;19917;-83
2023/02/28 13:23:02;;;;;;;;;;;;;;;;;;5039374;28;20344;-83
2023/02/28 13:25:27;;;;;;;;;;;;;;;;;;5037582;28;19921;-83
2023/02/28 13:27:56;;;;;;;;;;;;;;;;;;5037820;28;19982;-83
2023/02/28 13:30:21;;;;;;;;;;;;;;;;;;5042016;28;19917;-83
2023/02/28 13:32:47;;;;;;;;;;;;;;;;;;5040728;28;19994;-83
2023/02/28 13:35:12;;;;;;;;;;;;;;;;;;5040267;28;20294;-83
2023/02/28 13:37:38;;;;;;;;;;;;;;;;;;5046009;28;19962;-83
2023/02/28 13:40:05;;;;;;;;;;;;;;;;;;5048702;28;20382;-83
2023/02/28 13:42:30;;;;;;;;;;;;;;;;;;5039527;28;19990;-83
2023/02/28 13:44:55;;;;;;;;;;;;;;;;;;5037795;28;19924;-83
2023/02/28 13:47:20;;;;;;;;;;;;;;;;;;5036902;28;19920;-83
2023/02/28 13:49:45;;;;;;;;;;;;;;;;;;5038956;28;19916;-83
2023/02/28 13:52:16;;;;;;;;;;;;;;;;;;5042010;28;19936;-83
2023/02/28 13:54:41;;;;;;;;;;;;;;;;;;5039620;28;19913;-83
2023/02/28 13:57:06;;;;;;;;;;;;;;;;;;5028345;28;19987;-83
2023/02/28 13:59:32;;;;;;;;;;;;;;;;;;5035608;28;20382;-83
2023/02/28 14:01:57;;;;;;;;;;;;;;;;;;5040023;28;20037;-83
2023/02/28 14:04:22;;;;;;;;;;;;;;;;;;5037487;28;19970;-83
2023/02/28 14:06:47;;;;;;;;;;;;;;;;;;5040285;28;19995;-83
2023/02/28 14:09:12;;;;;;;;;;;;;;;;;;5030711;28;19940;-83
2023/02/28 14:11:38;;;;;;;;;;;;;;;;;;5033080;28;20448;-83
2023/02/28 14:14:03;;;;;;;;;;;;;;;;;;5038958;28;20030;-83
2023/02/28 14:16:29;;;;;;;;;;;;;;;;;;5038783;28;19924;-83
2023/02/28 14:18:54;;;;;;;;;;;;;;;;;;5031617;28;20842;-83
2023/02/28 14:21:20;;;;;;;;;;;;;;;;;;5038613;28;19913;-83
2023/02/28 14:23:45;;;;;;;;;;;;;;;;;;5036054;28;19912;-83
2023/02/28 14:26:11;;;;;;;;;;;;;;;;;;5031409;28;20011;-83
2023/02/28 14:28:36;;;;;;;;;;;;;;;;;;5034144;28;19920;-83
2023/02/28 14:31:02;;;;;;;;;;;;;;;;;;5042640;28;19924;-83
2023/02/28 14:33:27;;;;;;;;;;;;;;;;;;5037695;28;20469;-83
2023/02/28 14:35:52;;;;;;;;;;;;;;;;;;5044059;28;20283;-83
2023/02/28 14:38:18;;;;;;;;;;;;;;;;;;5031449;28;19921;-83
2023/02/28 14:40:43;;;;;;;;;;;;;;;;;;5044244;28;20415;-83
2023/02/28 14:43:08;;;;;;;;;;;;;;;;;;5031034;28;19917;-83
2023/02/28 14:45:33;;;;;;;;;;;;;;;;;;5038146;28;19910;-83
2023/02/28 14:47:58;;;;;;;;;;;;;;;;;;5042782;28;19927;-83
2023/02/28 14:50:23;;;;;;;;;;;;;;;;;;5037404;28;19913;-83
2023/02/28 14:52:49;;;;;;;;;;;;;;;;;;5033050;28;19917;-82
2023/02/28 14:55:15;;;;;;;;;;;;;;;;;;5030696;28;19924;-83
2023/02/28 14:57:40;;;;;;;;;;;;;;;;;;5038363;28;19924;-82
2023/02/28 15:00:10;;;;;;;;;;;;;;;;;;5044598;28;20007;-83
2023/02/28 15:02:35;;;;;;;;;;;;;;;;;;5038464;28;19917;-83
2023/02/28 15:05:00;;;;;;;;;;;;;;;;;;5031356;28;20425;-83
2023/02/28 15:07:28;;;;;;;;;;;;;;;;;;5042660;28;19913;-83
2023/02/28 15:09:53;;;;;;;;;;;;;;;;;;5038546;28;19921;-82
2023/02/28 15:12:19;;;;;;;;;;;;;;;;;;5037449;28;19921;-82
2023/02/28 15:14:44;;;;;;;;;;;;;;;;;;5045912;28;20511;-82
2023/02/28 15:17:09;;;;;;;;;;;;;;;;;;5043554;28;19936;-82
2023/02/28 15:19:34;;;;;;;;;;;;;;;;;;5031620;28;19913;-82
2023/02/28 15:21:59;;;;;;;;;;;;;;;;;;5037309;28;20390;-82
2023/02/28 15:24:25;;;;;;;;;;;;;;;;;;5035794;28;19923;-82
2023/02/28 15:26:50;;;;;;;;;;;;;;;;;;5044968;28;19925;-82
2023/02/28 15:29:15;;;;;;;;;;;;;;;;;;5042324;28;19920;-82
2023/02/28 15:31:41;;;;;;;;;;;;;;;;;;5040008;28;19916;-82
2023/02/28 15:34:06;;;;;;;;;;;;;;;;;;5025111;28;20258;-82
2023/02/28 15:36:33;;;;;;;;;;;;;;;;;;5031122;28;19963;-82
2023/02/28 15:38:58;;;;;;;;;;;;;;;;;;5037684;28;19921;-82
2023/02/28 15:41:23;;;;;;;;;;;;;;;;;;5032165;28;19917;-82
2023/02/28 15:43:48;;;;;;;;;;;;;;;;;;5039562;28;19924;-82
2023/02/28 15:46:15;;;;;;;;;;;;;;;;;;5040160;28;20317;-82
2023/02/28 15:48:40;;;;;;;;;;;;;;;;;;5038072;28;20007;-82
2023/02/28 15:51:06;;;;;;;;;;;;;;;;;;5028651;28;20011;-82
2023/02/28 15:53:31;;;;;;;;;;;;;;;;;;5032865;28;19943;-82
2023/02/28 15:55:56;;;;;;;;;;;;;;;;;;5032264;28;20048;-82
2023/02/28 15:58:21;;;;;;;;;;;;;;;;;;5038176;28;19925;-82
2023/02/28 16:00:49;;;;;;;;;;;;;;;;;;5036956;28;19921;-82
2023/02/28 16:03:14;;;;;;;;;;;;;;;;;;5040016;28;19921;-82
2023/02/28 16:05:39;;;;;;;;;;;;;;;;;;5043179;28;19913;-82
2023/02/28 16:08:04;;;;;;;;;;;;;;;;;;5056590;28;20000;-82
2023/02/28 16:10:30;;;;;;;;;;;;;;;;;;5053388;28;19962;-81
2023/02/28 16:12:55;;;;;;;;;;;;;;;;;;5044645;28;22059;-81
2023/02/28 16:15:20;;;;;;;;;;;;;;;;;;5042759;28;20003;-82
2023/02/28 16:17:46;;;;;;;;;;;;;;;;;;5042410;28;19920;-82
2023/02/28 16:20:11;;;;;;;;;;;;;;;;;;5045722;28;20406;-81
2023/02/28 16:22:36;;;;;;;;;;;;;;;;;;5044256;28;19924;-82
2023/02/28 16:25:04;;;;;;;;;;;;;;;;;;5046283;28;20011;-82
2023/02/28 16:27:29;;;;;;;;;;;;;;;;;;5042271;28;20663;-81
2023/02/28 16:29:54;;;;;;;;;;;;;;;;;;5042181;28;20003;-81
2023/02/28 16:32:19;;;;;;;;;;;;;;;;;;5042988;28;19917;-81